Ana Sayfa
METAR-TAF:

METAR-TAF

Havaalanları :

Austin, Teksas, Amerika Birleşik Devletleri

Enlem: 30-24-00N, Boylam: 097-34-25W, yükseklik: 189 m

Güncel hava durumu gözlemi

Rapor saat 06:35 UTC de 18 dakika önce yapıldı.
Rüzgar güneydan 7 kt ve 12 kt'a kadar ani rüzgarlar
Sıcaklık 26°C
Nem 84%
Basınç 1014 hPa
Görüş mesafesi: 11.3 km
Açık gökyüzü

METAR: KEDC 160635Z AUTO 19007G12KT 7SM CLR 26/23 A2995 RMK AO2

Saat: 00:53 (06:53 UTC)


TAF: eksik

4.000'den fazla havaalanı için hava durumu gözlemleri ve tahminleri (METAR ve TAF raporları).

Kullanılabilir istasyonlar harita üzerinde sarı ve kırmızı noktalarla gösterilir.

İstasyonun adını görmek için fareyi noktanın üzerinde gezdirin.

Sonrasında hava gözlem ve tahminlerini görmek için tıklayın.

Haritayı değiştirmek için: yaklaştırmak için siyah artı işaretli yeşil düğmeye ve uzaklaştırmak için de eksi işaretli düğmeye hızla tıklayın; bitişik haritalar için yeşil okları kullanın.


METAR-TAF: